sensor_id;sensor_type;location;lat;lon;timestamp;temperature;humidity
65203;HTU21D;51788;45.124;38.966;2023-07-09T00:00:36;22.65;83.73
65203;HTU21D;51788;45.124;38.966;2023-07-09T00:03:02;22.67;83.77
65203;HTU21D;51788;45.124;38.966;2023-07-09T00:05:28;22.67;83.80
65203;HTU21D;51788;45.124;38.966;2023-07-09T00:07:54;22.67;83.82
65203;HTU21D;51788;45.124;38.966;2023-07-09T00:10:21;22.62;84.03
65203;HTU21D;51788;45.124;38.966;2023-07-09T00:12:47;22.53;84.24
65203;HTU21D;51788;45.124;38.966;2023-07-09T00:15:14;22.44;84.46
65203;HTU21D;51788;45.124;38.966;2023-07-09T00:17:44;22.40;84.58
65203;HTU21D;51788;45.124;38.966;2023-07-09T00:20:17;22.42;84.77
65203;HTU21D;51788;45.124;38.966;2023-07-09T00:22:44;22.48;84.55
65203;HTU21D;51788;45.124;38.966;2023-07-09T00:25:21;22.49;84.52
65203;HTU21D;51788;45.124;38.966;2023-07-09T00:27:47;22.41;84.61
65203;HTU21D;51788;45.124;38.966;2023-07-09T00:30:19;22.36;84.73
65203;HTU21D;51788;45.124;38.966;2023-07-09T00:32:46;22.32;84.83
65203;HTU21D;51788;45.124;38.966;2023-07-09T00:35:12;22.24;85.02
65203;HTU21D;51788;45.124;38.966;2023-07-09T00:37:45;22.24;85.21
65203;HTU21D;51788;45.124;38.966;2023-07-09T00:40:20;22.32;85.08
65203;HTU21D;51788;45.124;38.966;2023-07-09T00:42:49;22.39;84.89
65203;HTU21D;51788;45.124;38.966;2023-07-09T00:45:26;22.40;84.91
65203;HTU21D;51788;45.124;38.966;2023-07-09T00:48:06;22.36;85.03
65203;HTU21D;51788;45.124;38.966;2023-07-09T00:50:52;22.27;85.21
65203;HTU21D;51788;45.124;38.966;2023-07-09T00:53:21;22.25;85.19
65203;HTU21D;51788;45.124;38.966;2023-07-09T00:56:07;22.32;85.32
65203;HTU21D;51788;45.124;38.966;2023-07-09T00:58:36;22.41;85.09
65203;HTU21D;51788;45.124;38.966;2023-07-09T01:01:05;22.47;85.04
65203;HTU21D;51788;45.124;38.966;2023-07-09T01:03:37;22.51;85.00
65203;HTU21D;51788;45.124;38.966;2023-07-09T01:06:06;22.53;84.84
65203;HTU21D;51788;45.124;38.966;2023-07-09T01:08:34;22.53;84.74
65203;HTU21D;51788;45.124;38.966;2023-07-09T01:11:00;22.56;84.94
65203;HTU21D;51788;45.124;38.966;2023-07-09T01:13:28;22.61;85.17
65203;HTU21D;51788;45.124;38.966;2023-07-09T01:15:55;22.63;85.22
65203;HTU21D;51788;45.124;38.966;2023-07-09T01:18:22;22.64;85.32
65203;HTU21D;51788;45.124;38.966;2023-07-09T01:20:51;22.64;85.51
65203;HTU21D;51788;45.124;38.966;2023-07-09T01:23:18;22.58;85.73
65203;HTU21D;51788;45.124;38.966;2023-07-09T01:25:47;22.54;86.17
65203;HTU21D;51788;45.124;38.966;2023-07-09T01:28:19;22.48;86.38
65203;HTU21D;51788;45.124;38.966;2023-07-09T01:30:47;22.44;86.55
65203;HTU21D;51788;45.124;38.966;2023-07-09T01:33:21;22.42;86.71
65203;HTU21D;51788;45.124;38.966;2023-07-09T01:35:48;22.42;86.82
65203;HTU21D;51788;45.124;38.966;2023-07-09T01:38:14;22.42;86.90
65203;HTU21D;51788;45.124;38.966;2023-07-09T01:40:42;22.44;86.93
65203;HTU21D;51788;45.124;38.966;2023-07-09T01:43:07;22.50;86.96
65203;HTU21D;51788;45.124;38.966;2023-07-09T01:45:35;22.54;86.98
65203;HTU21D;51788;45.124;38.966;2023-07-09T01:48:02;22.60;87.00
65203;HTU21D;51788;45.124;38.966;2023-07-09T01:50:29;22.66;87.05
65203;HTU21D;51788;45.124;38.966;2023-07-09T01:52:56;22.70;87.07
65203;HTU21D;51788;45.124;38.966;2023-07-09T01:55:23;22.72;87.09
65203;HTU21D;51788;45.124;38.966;2023-07-09T01:57:50;22.72;87.20
65203;HTU21D;51788;45.124;38.966;2023-07-09T02:00:18;22.75;87.21
65203;HTU21D;51788;45.124;38.966;2023-07-09T02:02:47;22.79;87.21
65203;HTU21D;51788;45.124;38.966;2023-07-09T02:05:15;22.82;87.25
65203;HTU21D;51788;45.124;38.966;2023-07-09T02:07:42;22.84;87.28
65203;HTU21D;51788;45.124;38.966;2023-07-09T02:10:09;22.85;87.44
65203;HTU21D;51788;45.124;38.966;2023-07-09T02:12:35;22.88;87.46
65203;HTU21D;51788;45.124;38.966;2023-07-09T02:15:01;22.94;87.44
65203;HTU21D;51788;45.124;38.966;2023-07-09T02:17:27;22.97;87.42
65203;HTU21D;51788;45.124;38.966;2023-07-09T02:19:53;23.01;87.41
65203;HTU21D;51788;45.124;38.966;2023-07-09T02:22:19;23.05;87.48
65203;HTU21D;51788;45.124;38.966;2023-07-09T02:24:45;23.08;87.46
65203;HTU21D;51788;45.124;38.966;2023-07-09T02:27:15;23.11;87.56
65203;HTU21D;51788;45.124;38.966;2023-07-09T02:29:41;23.12;87.57
65203;HTU21D;51788;45.124;38.966;2023-07-09T02:32:07;23.16;87.56
65203;HTU21D;51788;45.124;38.966;2023-07-09T02:34:34;23.20;87.60
65203;HTU21D;51788;45.124;38.966;2023-07-09T02:37:00;23.26;87.55
65203;HTU21D;51788;45.124;38.966;2023-07-09T02:39:26;23.28;87.50
65203;HTU21D;51788;45.124;38.966;2023-07-09T02:41:53;23.31;87.44
65203;HTU21D;51788;45.124;38.966;2023-07-09T02:44:19;23.35;87.38
65203;HTU21D;51788;45.124;38.966;2023-07-09T02:46:45;23.37;87.40
65203;HTU21D;51788;45.124;38.966;2023-07-09T02:49:13;23.38;87.44
65203;HTU21D;51788;45.124;38.966;2023-07-09T02:51:39;23.37;87.57
65203;HTU21D;51788;45.124;38.966;2023-07-09T02:54:06;23.40;87.54
65203;HTU21D;51788;45.124;38.966;2023-07-09T02:56:32;23.45;87.48
65203;HTU21D;51788;45.124;38.966;2023-07-09T02:58:58;23.52;87.38
65203;HTU21D;51788;45.124;38.966;2023-07-09T03:01:25;23.55;87.27
65203;HTU21D;51788;45.124;38.966;2023-07-09T03:03:56;23.62;87.22
65203;HTU21D;51788;45.124;38.966;2023-07-09T03:06:23;23.69;87.11
65203;HTU21D;51788;45.124;38.966;2023-07-09T03:08:50;23.74;87.00
65203;HTU21D;51788;45.124;38.966;2023-07-09T03:11:17;23.77;86.93
65203;HTU21D;51788;45.124;38.966;2023-07-09T03:13:44;23.80;86.88
65203;HTU21D;51788;45.124;38.966;2023-07-09T03:16:10;23.86;86.78
65203;HTU21D;51788;45.124;38.966;2023-07-09T03:18:36;23.89;86.70
65203;HTU21D;51788;45.124;38.966;2023-07-09T03:21:03;23.96;86.64
65203;HTU21D;51788;45.124;38.966;2023-07-09T03:23:30;24.00;86.59
65203;HTU21D;51788;45.124;38.966;2023-07-09T03:25:56;24.04;86.52
65203;HTU21D;51788;45.124;38.966;2023-07-09T03:28:23;24.11;86.48
65203;HTU21D;51788;45.124;38.966;2023-07-09T03:30:49;24.15;86.41
65203;HTU21D;51788;45.124;38.966;2023-07-09T03:33:16;24.23;86.23
65203;HTU21D;51788;45.124;38.966;2023-07-09T03:35:43;24.29;86.05
65203;HTU21D;51788;45.124;38.966;2023-07-09T03:38:10;24.35;85.84
65203;HTU21D;51788;45.124;38.966;2023-07-09T03:40:37;24.39;85.72
65203;HTU21D;51788;45.124;38.966;2023-07-09T03:43:04;24.43;85.68
65203;HTU21D;51788;45.124;38.966;2023-07-09T03:45:30;24.47;85.61
65203;HTU21D;51788;45.124;38.966;2023-07-09T03:47:56;24.57;85.45
65203;HTU21D;51788;45.124;38.966;2023-07-09T03:50:22;24.70;85.21
65203;HTU21D;51788;45.124;38.966;2023-07-09T03:52:48;24.77;84.97
65203;HTU21D;51788;45.124;38.966;2023-07-09T03:55:14;24.86;84.74
65203;HTU21D;51788;45.124;38.966;2023-07-09T03:57:40;24.92;84.58
65203;HTU21D;51788;45.124;38.966;2023-07-09T04:00:07;24.95;84.45
65203;HTU21D;51788;45.124;38.966;2023-07-09T04:02:41;25.03;84.28
65203;HTU21D;51788;45.124;38.966;2023-07-09T04:05:09;25.10;84.17
65203;HTU21D;51788;45.124;38.966;2023-07-09T04:07:36;25.18;83.98
65203;HTU21D;51788;45.124;38.966;2023-07-09T04:10:03;25.23;83.74
65203;HTU21D;51788;45.124;38.966;2023-07-09T04:12:29;25.32;83.52
65203;HTU21D;51788;45.124;38.966;2023-07-09T04:14:55;25.42;83.22
65203;HTU21D;51788;45.124;38.966;2023-07-09T04:17:21;25.52;82.91
65203;HTU21D;51788;45.124;38.966;2023-07-09T04:19:50;25.65;82.62
65203;HTU21D;51788;45.124;38.966;2023-07-09T04:22:17;25.80;82.22
65203;HTU21D;51788;45.124;38.966;2023-07-09T04:24:43;25.93;81.96
65203;HTU21D;51788;45.124;38.966;2023-07-09T04:27:09;26.09;81.52
65203;HTU21D;51788;45.124;38.966;2023-07-09T04:29:35;26.18;81.15
65203;HTU21D;51788;45.124;38.966;2023-07-09T04:32:08;26.27;80.77
65203;HTU21D;51788;45.124;38.966;2023-07-09T04:34:37;26.26;80.64
65203;HTU21D;51788;45.124;38.966;2023-07-09T04:37:06;26.30;80.53
65203;HTU21D;51788;45.124;38.966;2023-07-09T04:39:33;26.33;80.37
65203;HTU21D;51788;45.124;38.966;2023-07-09T04:41:59;26.36;80.24
65203;HTU21D;51788;45.124;38.966;2023-07-09T04:44:25;26.40;79.95
65203;HTU21D;51788;45.124;38.966;2023-07-09T04:46:51;26.45;79.78
65203;HTU21D;51788;45.124;38.966;2023-07-09T04:49:18;26.42;79.67
65203;HTU21D;51788;45.124;38.966;2023-07-09T04:51:44;26.48;79.49
65203;HTU21D;51788;45.124;38.966;2023-07-09T04:54:10;26.56;79.21
65203;HTU21D;51788;45.124;38.966;2023-07-09T04:56:36;26.65;78.89
65203;HTU21D;51788;45.124;38.966;2023-07-09T04:59:03;26.68;78.71
65203;HTU21D;51788;45.124;38.966;2023-07-09T05:01:29;26.67;78.67
65203;HTU21D;51788;45.124;38.966;2023-07-09T05:03:55;26.69;78.51
65203;HTU21D;51788;45.124;38.966;2023-07-09T05:06:21;26.76;78.21
65203;HTU21D;51788;45.124;38.966;2023-07-09T05:08:47;26.73;78.13
65203;HTU21D;51788;45.124;38.966;2023-07-09T05:11:14;26.81;78.02
65203;HTU21D;51788;45.124;38.966;2023-07-09T05:13:41;26.97;77.63
65203;HTU21D;51788;45.124;38.966;2023-07-09T05:16:07;27.04;77.30
65203;HTU21D;51788;45.124;38.966;2023-07-09T05:18:33;27.07;77.22
65203;HTU21D;51788;45.124;38.966;2023-07-09T05:20:58;26.98;77.25
65203;HTU21D;51788;45.124;38.966;2023-07-09T05:23:25;27.00;77.23
65203;HTU21D;51788;45.124;38.966;2023-07-09T05:25:58;27.05;76.89
65203;HTU21D;51788;45.124;38.966;2023-07-09T05:28:24;27.12;76.72
65203;HTU21D;51788;45.124;38.966;2023-07-09T05:30:51;27.14;76.52
65203;HTU21D;51788;45.124;38.966;2023-07-09T05:33:18;27.10;76.59
65203;HTU21D;51788;45.124;38.966;2023-07-09T05:35:47;27.09;76.54
65203;HTU21D;51788;45.124;38.966;2023-07-09T05:38:13;27.09;76.54
65203;HTU21D;51788;45.124;38.966;2023-07-09T05:40:40;27.08;76.54
65203;HTU21D;51788;45.124;38.966;2023-07-09T05:43:06;27.08;76.52
65203;HTU21D;51788;45.124;38.966;2023-07-09T05:45:32;27.14;76.28
65203;HTU21D;51788;45.124;38.966;2023-07-09T05:47:59;27.12;76.12
65203;HTU21D;51788;45.124;38.966;2023-07-09T05:50:25;27.11;76.12
65203;HTU21D;51788;45.124;38.966;2023-07-09T05:52:51;27.06;76.21
65203;HTU21D;51788;45.124;38.966;2023-07-09T05:55:17;27.01;76.33
65203;HTU21D;51788;45.124;38.966;2023-07-09T05:57:43;26.98;76.36
65203;HTU21D;51788;45.124;38.966;2023-07-09T06:00:09;27.07;76.18
65203;HTU21D;51788;45.124;38.966;2023-07-09T06:02:42;27.13;75.97
65203;HTU21D;51788;45.124;38.966;2023-07-09T06:05:08;27.15;75.83
65203;HTU21D;51788;45.124;38.966;2023-07-09T06:07:35;27.17;75.90
65203;HTU21D;51788;45.124;38.966;2023-07-09T06:10:00;27.22;75.82
65203;HTU21D;51788;45.124;38.966;2023-07-09T06:12:26;27.20;75.67
65203;HTU21D;51788;45.124;38.966;2023-07-09T06:14:52;27.14;75.62
65203;HTU21D;51788;45.124;38.966;2023-07-09T06:17:18;27.13;75.73
65203;HTU21D;51788;45.124;38.966;2023-07-09T06:19:44;27.11;75.60
65203;HTU21D;51788;45.124;38.966;2023-07-09T06:22:10;27.02;75.76
65203;HTU21D;51788;45.124;38.966;2023-07-09T06:24:36;27.07;75.53
65203;HTU21D;51788;45.124;38.966;2023-07-09T06:27:02;27.07;75.49
65203;HTU21D;51788;45.124;38.966;2023-07-09T06:29:28;27.12;75.40
65203;HTU21D;51788;45.124;38.966;2023-07-09T06:31:54;27.17;75.24
65203;HTU21D;51788;45.124;38.966;2023-07-09T06:34:20;27.24;75.03
65203;HTU21D;51788;45.124;38.966;2023-07-09T06:36:45;27.28;74.83
65203;HTU21D;51788;45.124;38.966;2023-07-09T06:39:11;27.30;74.73
65203;HTU21D;51788;45.124;38.966;2023-07-09T06:41:37;27.36;74.51
65203;HTU21D;51788;45.124;38.966;2023-07-09T06:44:06;27.40;74.33
65203;HTU21D;51788;45.124;38.966;2023-07-09T06:46:32;27.35;74.20
65203;HTU21D;51788;45.124;38.966;2023-07-09T06:48:59;27.31;74.31
65203;HTU21D;51788;45.124;38.966;2023-07-09T06:51:25;27.36;74.29
65203;HTU21D;51788;45.124;38.966;2023-07-09T06:53:51;27.46;74.12
65203;HTU21D;51788;45.124;38.966;2023-07-09T06:56:17;27.63;73.71
65203;HTU21D;51788;45.124;38.966;2023-07-09T06:58:44;27.81;73.31
65203;HTU21D;51788;45.124;38.966;2023-07-09T07:01:12;27.93;72.63
65203;HTU21D;51788;45.124;38.966;2023-07-09T07:03:38;27.95;72.09
65203;HTU21D;51788;45.124;38.966;2023-07-09T07:06:05;28.01;71.59
65203;HTU21D;51788;45.124;38.966;2023-07-09T07:08:34;28.14;71.04
65203;HTU21D;51788;45.124;38.966;2023-07-09T07:11:03;28.18;70.71
65203;HTU21D;51788;45.124;38.966;2023-07-09T07:13:31;28.21;70.23
65203;HTU21D;51788;45.124;38.966;2023-07-09T07:15:57;28.16;70.07
65203;HTU21D;51788;45.124;38.966;2023-07-09T07:18:24;28.21;70.25
65203;HTU21D;51788;45.124;38.966;2023-07-09T07:20:50;28.30;70.07
65203;HTU21D;51788;45.124;38.966;2023-07-09T07:23:17;28.43;69.33
65203;HTU21D;51788;45.124;38.966;2023-07-09T07:25:45;28.43;68.49
65203;HTU21D;51788;45.124;38.966;2023-07-09T07:28:12;28.39;68.20
65203;HTU21D;51788;45.124;38.966;2023-07-09T07:30:38;28.35;68.23
65203;HTU21D;51788;45.124;38.966;2023-07-09T07:33:04;28.35;67.88
65203;HTU21D;51788;45.124;38.966;2023-07-09T07:35:30;28.33;68.07
65203;HTU21D;51788;45.124;38.966;2023-07-09T07:37:56;28.38;67.68
65203;HTU21D;51788;45.124;38.966;2023-07-09T07:40:22;28.29;67.62
65203;HTU21D;51788;45.124;38.966;2023-07-09T07:42:48;28.23;67.84
65203;HTU21D;51788;45.124;38.966;2023-07-09T07:45:14;28.08;68.25
65203;HTU21D;51788;45.124;38.966;2023-07-09T07:47:40;27.95;68.65
65203;HTU21D;51788;45.124;38.966;2023-07-09T07:50:07;27.91;68.91
65203;HTU21D;51788;45.124;38.966;2023-07-09T07:52:33;27.87;68.98
65203;HTU21D;51788;45.124;38.966;2023-07-09T07:55:09;27.81;69.09
65203;HTU21D;51788;45.124;38.966;2023-07-09T07:57:35;27.84;69.14
65203;HTU21D;51788;45.124;38.966;2023-07-09T08:00:02;27.96;68.97
65203;HTU21D;51788;45.124;38.966;2023-07-09T08:02:37;28.05;68.69
65203;HTU21D;51788;45.124;38.966;2023-07-09T08:05:04;28.13;68.33
65203;HTU21D;51788;45.124;38.966;2023-07-09T08:07:31;28.27;68.10
65203;HTU21D;51788;45.124;38.966;2023-07-09T08:12:41;28.72;67.10
65203;HTU21D;51788;45.124;38.966;2023-07-09T08:15:08;28.76;66.58
65203;HTU21D;51788;45.124;38.966;2023-07-09T08:17:34;28.80;66.67
65203;HTU21D;51788;45.124;38.966;2023-07-09T08:19:59;28.99;66.53
65203;HTU21D;51788;45.124;38.966;2023-07-09T08:22:26;29.12;65.98
65203;HTU21D;51788;45.124;38.966;2023-07-09T08:24:52;29.12;65.84
65203;HTU21D;51788;45.124;38.966;2023-07-09T08:27:19;29.12;65.68
65203;HTU21D;51788;45.124;38.966;2023-07-09T08:29:45;29.08;65.78
65203;HTU21D;51788;45.124;38.966;2023-07-09T08:32:12;29.05;65.69
65203;HTU21D;51788;45.124;38.966;2023-07-09T08:34:39;29.01;65.62
65203;HTU21D;51788;45.124;38.966;2023-07-09T08:37:06;29.05;65.54
65203;HTU21D;51788;45.124;38.966;2023-07-09T08:39:32;29.01;65.05
65203;HTU21D;51788;45.124;38.966;2023-07-09T08:42:11;28.93;65.37
65203;HTU21D;51788;45.124;38.966;2023-07-09T08:47:38;29.00;65.01
65203;HTU21D;51788;45.124;38.966;2023-07-09T08:50:13;29.01;64.88
65203;HTU21D;51788;45.124;38.966;2023-07-09T08:52:45;28.95;65.03
65203;HTU21D;51788;45.124;38.966;2023-07-09T08:55:18;28.88;65.06
65203;HTU21D;51788;45.124;38.966;2023-07-09T09:00:36;28.73;64.82
65203;HTU21D;51788;45.124;38.966;2023-07-09T09:06:36;28.62;64.85
65203;HTU21D;51788;45.124;38.966;2023-07-09T09:09:21;28.63;64.88
65203;HTU21D;51788;45.124;38.966;2023-07-09T09:11:57;28.78;64.69
65203;HTU21D;51788;45.124;38.966;2023-07-09T09:14:37;28.93;64.37
65203;HTU21D;51788;45.124;38.966;2023-07-09T09:17:11;29.08;64.18
65203;HTU21D;51788;45.124;38.966;2023-07-09T09:19:48;29.09;64.01
65203;HTU21D;51788;45.124;38.966;2023-07-09T09:22:21;29.04;64.21
65203;HTU21D;51788;45.124;38.966;2023-07-09T09:27:28;29.18;64.08
65203;HTU21D;51788;45.124;38.966;2023-07-09T09:29:54;29.18;63.98
65203;HTU21D;51788;45.124;38.966;2023-07-09T09:32:25;29.17;64.06
65203;HTU21D;51788;45.124;38.966;2023-07-09T09:34:52;29.23;64.18
65203;HTU21D;51788;45.124;38.966;2023-07-09T09:37:31;29.29;63.79
65203;HTU21D;51788;45.124;38.966;2023-07-09T09:40:01;29.17;64.01
65203;HTU21D;51788;45.124;38.966;2023-07-09T09:42:28;29.19;63.99
65203;HTU21D;51788;45.124;38.966;2023-07-09T09:44:55;29.14;63.98
65203;HTU21D;51788;45.124;38.966;2023-07-09T09:47:21;29.18;64.02
65203;HTU21D;51788;45.124;38.966;2023-07-09T09:49:52;29.39;63.73
65203;HTU21D;51788;45.124;38.966;2023-07-09T09:52:19;29.45;63.46
65203;HTU21D;51788;45.124;38.966;2023-07-09T09:54:52;29.43;63.47
65203;HTU21D;51788;45.124;38.966;2023-07-09T09:57:22;29.37;63.60
65203;HTU21D;51788;45.124;38.966;2023-07-09T09:59:48;29.30;63.53
65203;HTU21D;51788;45.124;38.966;2023-07-09T10:02:20;29.22;63.69
65203;HTU21D;51788;45.124;38.966;2023-07-09T10:04:47;29.31;63.76
65203;HTU21D;51788;45.124;38.966;2023-07-09T10:07:29;29.37;63.35
65203;HTU21D;51788;45.124;38.966;2023-07-09T10:09:56;29.49;62.98
65203;HTU21D;51788;45.124;38.966;2023-07-09T10:17:39;29.74;62.26
65203;HTU21D;51788;45.124;38.966;2023-07-09T10:23:02;29.61;62.37
65203;HTU21D;51788;45.124;38.966;2023-07-09T10:39:36;29.22;62.49
65203;HTU21D;51788;45.124;38.966;2023-07-09T10:42:02;29.16;62.79
65203;HTU21D;51788;45.124;38.966;2023-07-09T10:44:38;29.13;62.60
65203;HTU21D;51788;45.124;38.966;2023-07-09T10:47:11;29.11;62.52
65203;HTU21D;51788;45.124;38.966;2023-07-09T10:49:41;29.15;62.47
65203;HTU21D;51788;45.124;38.966;2023-07-09T11:00:19;29.28;61.79
65203;HTU21D;51788;45.124;38.966;2023-07-09T11:02:53;29.24;61.31
65203;HTU21D;51788;45.124;38.966;2023-07-09T11:05:23;29.27;61.25
65203;HTU21D;51788;45.124;38.966;2023-07-09T11:08:00;29.27;60.73
65203;HTU21D;51788;45.124;38.966;2023-07-09T11:10:37;29.35;61.04
65203;HTU21D;51788;45.124;38.966;2023-07-09T11:13:21;29.57;60.67
65203;HTU21D;51788;45.124;38.966;2023-07-09T11:15:51;29.67;60.16
65203;HTU21D;51788;45.124;38.966;2023-07-09T11:18:29;29.83;60.13
65203;HTU21D;51788;45.124;38.966;2023-07-09T11:24:00;30.00;59.00
65203;HTU21D;51788;45.124;38.966;2023-07-09T11:29:18;29.94;59.50
65203;HTU21D;51788;45.124;38.966;2023-07-09T11:31:46;29.87;58.92
65203;HTU21D;51788;45.124;38.966;2023-07-09T11:36:50;29.68;59.04
65203;HTU21D;51788;45.124;38.966;2023-07-09T11:39:22;29.70;59.12
65203;HTU21D;51788;45.124;38.966;2023-07-09T11:41:52;29.82;58.93
65203;HTU21D;51788;45.124;38.966;2023-07-09T11:44:26;29.81;58.57
65203;HTU21D;51788;45.124;38.966;2023-07-09T11:47:19;29.88;58.55
65203;HTU21D;51788;45.124;38.966;2023-07-09T11:49:59;29.71;58.61
65203;HTU21D;51788;45.124;38.966;2023-07-09T11:52:40;29.62;59.31
65203;HTU21D;51788;45.124;38.966;2023-07-09T11:58:11;29.81;59.13
65203;HTU21D;51788;45.124;38.966;2023-07-09T12:00:49;29.98;59.12
65203;HTU21D;51788;45.124;38.966;2023-07-09T12:03:19;30.15;58.79
65203;HTU21D;51788;45.124;38.966;2023-07-09T12:05:54;30.11;58.67
65203;HTU21D;51788;45.124;38.966;2023-07-09T12:08:27;30.08;59.02
65203;HTU21D;51788;45.124;38.966;2023-07-09T12:10:54;29.94;59.22
65203;HTU21D;51788;45.124;38.966;2023-07-09T12:13:20;29.96;59.28
65203;HTU21D;51788;45.124;38.966;2023-07-09T12:15:46;29.90;59.32
65203;HTU21D;51788;45.124;38.966;2023-07-09T12:18:14;29.86;59.48
65203;HTU21D;51788;45.124;38.966;2023-07-09T12:20:45;29.91;59.57
65203;HTU21D;51788;45.124;38.966;2023-07-09T12:23:32;29.98;59.18
65203;HTU21D;51788;45.124;38.966;2023-07-09T12:26:03;29.86;59.21
65203;HTU21D;51788;45.124;38.966;2023-07-09T12:28:30;28.83;60.64
65203;HTU21D;51788;45.124;38.966;2023-07-09T12:30:56;28.02;62.34
65203;HTU21D;51788;45.124;38.966;2023-07-09T12:33:24;27.44;63.53
65203;HTU21D;51788;45.124;38.966;2023-07-09T12:35:58;27.12;64.42
65203;HTU21D;51788;45.124;38.966;2023-07-09T12:38:29;26.81;65.12
65203;HTU21D;51788;45.124;38.966;2023-07-09T12:40:55;26.58;65.75
65203;HTU21D;51788;45.124;38.966;2023-07-09T12:43:27;26.36;66.36
65203;HTU21D;51788;45.124;38.966;2023-07-09T12:45:54;26.15;67.01
65203;HTU21D;51788;45.124;38.966;2023-07-09T12:48:26;25.88;67.75
65203;HTU21D;51788;45.124;38.966;2023-07-09T12:50:57;25.48;68.84
65203;HTU21D;51788;45.124;38.966;2023-07-09T12:53:26;25.16;69.32
65203;HTU21D;51788;45.124;38.966;2023-07-09T12:56:03;25.01;70.24
65203;HTU21D;51788;45.124;38.966;2023-07-09T12:58:37;24.56;71.59
65203;HTU21D;51788;45.124;38.966;2023-07-09T13:01:14;24.19;72.66
65203;HTU21D;51788;45.124;38.966;2023-07-09T13:03:41;23.96;74.50
65203;HTU21D;51788;45.124;38.966;2023-07-09T13:06:34;22.78;79.39
65203;HTU21D;51788;45.124;38.966;2023-07-09T13:09:00;21.87;81.05
65203;HTU21D;51788;45.124;38.966;2023-07-09T13:11:34;21.34;82.95
65203;HTU21D;51788;45.124;38.966;2023-07-09T13:14:11;21.09;82.75
65203;HTU21D;51788;45.124;38.966;2023-07-09T13:16:39;20.88;83.19
65203;HTU21D;51788;45.124;38.966;2023-07-09T13:19:05;20.58;82.55
65203;HTU21D;51788;45.124;38.966;2023-07-09T13:21:31;20.36;82.20
65203;HTU21D;51788;45.124;38.966;2023-07-09T13:23:58;20.20;81.76
65203;HTU21D;51788;45.124;38.966;2023-07-09T13:26:24;20.09;81.46
65203;HTU21D;51788;45.124;38.966;2023-07-09T13:28:50;19.86;82.10
65203;HTU21D;51788;45.124;38.966;2023-07-09T13:31:19;19.69;82.39
65203;HTU21D;51788;45.124;38.966;2023-07-09T13:34:13;19.63;82.68
65203;HTU21D;51788;45.124;38.966;2023-07-09T13:36:41;19.89;82.00
65203;HTU21D;51788;45.124;38.966;2023-07-09T13:39:10;20.12;81.46
65203;HTU21D;51788;45.124;38.966;2023-07-09T13:41:38;20.37;81.03
65203;HTU21D;51788;45.124;38.966;2023-07-09T13:44:11;20.60;80.69
65203;HTU21D;51788;45.124;38.966;2023-07-09T13:46:37;20.75;80.47
65203;HTU21D;51788;45.124;38.966;2023-07-09T13:49:17;20.86;80.48
65203;HTU21D;51788;45.124;38.966;2023-07-09T13:51:45;20.93;80.55
65203;HTU21D;51788;45.124;38.966;2023-07-09T13:54:16;20.99;80.75
65203;HTU21D;51788;45.124;38.966;2023-07-09T13:56:43;21.04;80.92
65203;HTU21D;51788;45.124;38.966;2023-07-09T13:59:26;21.06;81.01
65203;HTU21D;51788;45.124;38.966;2023-07-09T14:01:55;21.11;81.14
65203;HTU21D;51788;45.124;38.966;2023-07-09T14:04:23;21.02;81.62
65203;HTU21D;51788;45.124;38.966;2023-07-09T14:06:50;20.96;82.10
65203;HTU21D;51788;45.124;38.966;2023-07-09T14:09:16;21.07;81.97
65203;HTU21D;51788;45.124;38.966;2023-07-09T14:11:47;21.24;81.63
65203;HTU21D;51788;45.124;38.966;2023-07-09T14:14:22;21.36;81.49
65203;HTU21D;51788;45.124;38.966;2023-07-09T14:16:50;21.48;81.39
65203;HTU21D;51788;45.124;38.966;2023-07-09T14:19:21;21.53;81.40
65203;HTU21D;51788;45.124;38.966;2023-07-09T14:21:48;21.58;81.49
65203;HTU21D;51788;45.124;38.966;2023-07-09T14:27:24;21.53;81.87
65203;HTU21D;51788;45.124;38.966;2023-07-09T14:32:37;21.65;82.09
65203;HTU21D;51788;45.124;38.966;2023-07-09T14:35:12;21.68;82.17
65203;HTU21D;51788;45.124;38.966;2023-07-09T14:46:31;21.83;82.51
65203;HTU21D;51788;45.124;38.966;2023-07-09T14:48:57;21.90;82.62
65203;HTU21D;51788;45.124;38.966;2023-07-09T14:54:18;21.93;82.89
65203;HTU21D;51788;45.124;38.966;2023-07-09T14:56:45;21.97;82.92
65203;HTU21D;51788;45.124;38.966;2023-07-09T14:59:11;21.94;83.07
65203;HTU21D;51788;45.124;38.966;2023-07-09T15:01:37;21.93;83.22
65203;HTU21D;51788;45.124;38.966;2023-07-09T15:09:36;21.87;83.73
65203;HTU21D;51788;45.124;38.966;2023-07-09T15:12:03;21.88;83.82
65203;HTU21D;51788;45.124;38.966;2023-07-09T15:14:29;21.94;83.75
65203;HTU21D;51788;45.124;38.966;2023-07-09T15:16:55;21.93;83.82
65203;HTU21D;51788;45.124;38.966;2023-07-09T15:19:22;21.87;84.03
65203;HTU21D;51788;45.124;38.966;2023-07-09T15:21:49;21.85;84.19
65203;HTU21D;51788;45.124;38.966;2023-07-09T15:26:54;22.14;83.78
65203;HTU21D;51788;45.124;38.966;2023-07-09T15:29:21;22.27;83.61
65203;HTU21D;51788;45.124;38.966;2023-07-09T15:31:48;22.36;83.55
65203;HTU21D;51788;45.124;38.966;2023-07-09T15:34:14;22.39;83.62
65203;HTU21D;51788;45.124;38.966;2023-07-09T15:36:44;22.38;83.84
65203;HTU21D;51788;45.124;38.966;2023-07-09T15:39:10;22.27;84.28
65203;HTU21D;51788;45.124;38.966;2023-07-09T15:41:38;22.26;84.46
65203;HTU21D;51788;45.124;38.966;2023-07-09T15:44:04;22.29;84.42
65203;HTU21D;51788;45.124;38.966;2023-07-09T15:46:30;22.37;84.37
65203;HTU21D;51788;45.124;38.966;2023-07-09T15:48:56;22.39;84.43
65203;HTU21D;51788;45.124;38.966;2023-07-09T15:51:22;22.37;84.55
65203;HTU21D;51788;45.124;38.966;2023-07-09T15:53:48;22.34;84.81
65203;HTU21D;51788;45.124;38.966;2023-07-09T15:56:22;22.29;85.01
65203;HTU21D;51788;45.124;38.966;2023-07-09T15:58:49;22.28;85.19
65203;HTU21D;51788;45.124;38.966;2023-07-09T16:01:17;22.27;85.26
65203;HTU21D;51788;45.124;38.966;2023-07-09T16:03:50;22.33;85.24
65203;HTU21D;51788;45.124;38.966;2023-07-09T16:06:17;22.34;85.27
65203;HTU21D;51788;45.124;38.966;2023-07-09T16:08:43;22.29;85.48
65203;HTU21D;51788;45.124;38.966;2023-07-09T16:11:15;22.27;85.62
65203;HTU21D;51788;45.124;38.966;2023-07-09T16:13:42;22.25;85.71
65203;HTU21D;51788;45.124;38.966;2023-07-09T16:16:14;22.24;85.85
65203;HTU21D;51788;45.124;38.966;2023-07-09T16:18:41;22.24;85.90
65203;HTU21D;51788;45.124;38.966;2023-07-09T16:24:14;22.14;86.25
65203;HTU21D;51788;45.124;38.966;2023-07-09T16:26:41;22.09;86.42
65203;HTU21D;51788;45.124;38.966;2023-07-09T16:29:34;22.05;86.61
65203;HTU21D;51788;45.124;38.966;2023-07-09T16:32:00;22.04;86.66
65203;HTU21D;51788;45.124;38.966;2023-07-09T16:34:28;22.02;86.67
65203;HTU21D;51788;45.124;38.966;2023-07-09T16:36:55;21.98;86.79